createdAt,value
2019-04-28T00:00:21.781Z,99.90
2019-04-28T00:02:52.251Z,99.90
2019-04-28T00:05:22.739Z,99.90
2019-04-28T00:07:53.271Z,99.90
2019-04-28T00:10:23.805Z,99.90
2019-04-28T00:12:54.267Z,99.90
2019-04-28T00:15:24.866Z,99.90
2019-04-28T00:17:55.300Z,99.90
2019-04-28T00:20:47.845Z,99.90
2019-04-28T00:23:27.339Z,99.90
2019-04-28T00:26:06.840Z,99.90
2019-04-28T00:28:37.291Z,99.90
2019-04-28T00:31:08.008Z,99.90
2019-04-28T00:33:38.423Z,99.90
2019-04-28T00:36:08.964Z,99.90
2019-04-28T00:38:41.366Z,99.90
2019-04-28T00:41:11.615Z,99.90
2019-04-28T00:43:42.059Z,99.90
2019-04-28T00:46:13.367Z,99.90
2019-04-28T00:48:43.794Z,99.90
2019-04-28T00:51:14.204Z,99.90
2019-04-28T00:53:44.620Z,99.90
2019-04-28T00:56:15.099Z,99.90
2019-04-28T00:58:45.520Z,99.90
2019-04-28T01:01:21.324Z,99.90
2019-04-28T01:03:52.091Z,99.90
2019-04-28T01:06:22.521Z,99.90
2019-04-28T01:08:52.941Z,99.90
2019-04-28T01:11:23.527Z,99.90
2019-04-28T01:13:53.962Z,99.90
2019-04-28T01:16:30.827Z,99.90
2019-04-28T01:19:07.062Z,99.90
2019-04-28T01:21:55.487Z,99.90
2019-04-28T01:24:25.929Z,99.90
2019-04-28T01:26:56.862Z,99.90
2019-04-28T01:29:27.347Z,99.90
2019-04-28T01:32:10.318Z,99.90
2019-04-28T01:34:40.658Z,99.90
2019-04-28T01:37:11.099Z,99.90
2019-04-28T01:39:41.645Z,99.90
2019-04-28T01:42:12.090Z,99.90
2019-04-28T01:44:42.540Z,99.90
2019-04-28T01:47:12.947Z,99.90
2019-04-28T01:49:43.401Z,99.90
2019-04-28T01:52:13.811Z,99.90
2019-04-28T01:54:44.247Z,99.90
2019-04-28T01:57:14.667Z,99.90
2019-04-28T01:59:45.143Z,99.90
2019-04-28T02:02:15.593Z,99.90
2019-04-28T02:04:46.048Z,99.90
2019-04-28T02:07:16.473Z,99.90
2019-04-28T02:09:46.904Z,99.90
2019-04-28T02:12:17.327Z,99.90
2019-04-28T02:14:47.776Z,99.90
2019-04-28T02:17:20.180Z,99.90
2019-04-28T02:19:51.527Z,99.90
2019-04-28T02:22:27.487Z,99.90
2019-04-28T02:24:57.898Z,99.90
2019-04-28T02:27:30.073Z,99.90
2019-04-28T02:30:00.685Z,99.90
2019-04-28T02:32:31.295Z,99.90
2019-04-28T02:35:01.982Z,99.90
2019-04-28T02:37:32.490Z,99.90
2019-04-28T02:40:03.434Z,99.90
2019-04-28T02:42:34.425Z,99.90
2019-04-28T02:45:05.353Z,99.90
2019-04-28T02:47:35.776Z,99.90
2019-04-28T02:50:23.693Z,99.90
2019-04-28T02:53:02.746Z,99.90
2019-04-28T02:55:33.649Z,99.90
2019-04-28T02:58:04.072Z,99.90
2019-04-28T03:00:34.492Z,99.90
2019-04-28T03:03:04.968Z,99.90
2019-04-28T03:05:35.411Z,99.90
2019-04-28T03:08:05.893Z,99.90
2019-04-28T03:10:36.322Z,99.90
2019-04-28T03:13:06.742Z,99.90
2019-04-28T03:15:37.150Z,99.90
2019-04-28T03:18:07.552Z,99.90
2019-04-28T03:20:37.974Z,99.90
2019-04-28T03:23:11.496Z,99.90
2019-04-28T03:25:51.130Z,99.90
2019-04-28T03:28:30.779Z,99.90
2019-04-28T03:31:47.838Z,99.90
2019-04-28T03:33:49.031Z,99.90
2019-04-28T03:36:23.150Z,99.90
2019-04-28T03:38:52.922Z,99.90
2019-04-28T03:41:22.533Z,99.90
2019-04-28T03:43:52.987Z,99.90
2019-04-28T03:46:26.495Z,99.90
2019-04-28T03:48:56.939Z,99.90
2019-04-28T03:51:30.696Z,99.90
2019-04-28T03:54:00.634Z,99.90
2019-04-28T03:56:32.218Z,99.90
2019-04-28T03:59:02.644Z,99.90
2019-04-28T04:01:33.080Z,99.90
2019-04-28T04:04:03.775Z,99.90
2019-04-28T04:06:34.266Z,99.90
2019-04-28T04:09:05.511Z,99.90
2019-04-28T04:11:53.852Z,99.90
2019-04-28T04:14:52.367Z,99.90
2019-04-28T04:17:30.542Z,99.90
2019-04-28T04:20:01.819Z,99.90
2019-04-28T04:22:32.531Z,99.90
2019-04-28T04:25:02.974Z,99.90
2019-04-28T04:27:33.381Z,99.90
2019-04-28T04:30:03.926Z,99.90
2019-04-28T04:32:34.432Z,99.90
2019-04-28T04:35:05.353Z,99.90
2019-04-28T04:37:35.771Z,99.90
2019-04-28T04:40:06.539Z,99.90
2019-04-28T04:42:36.981Z,99.90
2019-04-28T04:45:10.381Z,99.90
2019-04-28T04:47:40.630Z,99.90
2019-04-28T04:50:13.234Z,99.90
2019-04-28T04:52:43.774Z,99.90
2019-04-28T04:55:14.217Z,99.90
2019-04-28T04:57:44.662Z,99.90
2019-04-28T05:00:22.372Z,99.90
2019-04-28T05:03:02.098Z,99.90
2019-04-28T05:05:36.346Z,99.90
2019-04-28T05:08:06.758Z,99.90
2019-04-28T05:10:37.199Z,99.90
2019-04-28T05:13:07.607Z,99.90
2019-04-28T05:15:39.934Z,99.90
2019-04-28T05:18:10.287Z,99.90
2019-04-28T05:20:40.782Z,99.90
2019-04-28T05:23:29.711Z,99.90
2019-04-28T05:26:01.524Z,99.90
2019-04-28T05:28:36.534Z,99.90
2019-04-28T05:31:04.367Z,99.90
2019-04-28T05:33:34.854Z,99.90
2019-04-28T05:36:05.811Z,99.90
2019-04-28T05:38:36.241Z,99.90
2019-04-28T05:41:06.705Z,99.90
2019-04-28T05:43:37.131Z,99.90
2019-04-28T05:46:07.558Z,99.90
2019-04-28T05:48:53.732Z,99.90
2019-04-28T05:51:25.789Z,99.90
2019-04-28T05:54:03.782Z,99.90
2019-04-28T05:56:45.234Z,99.90
2019-04-28T05:59:37.707Z,99.90
2019-04-28T06:02:12.425Z,99.90
2019-04-28T06:04:42.859Z,99.90
2019-04-28T06:07:37.023Z,99.90
2019-04-28T06:10:07.933Z,99.90
2019-04-28T06:12:40.426Z,99.90
2019-04-28T06:15:12.021Z,99.90
2019-04-28T06:17:42.557Z,99.90
2019-04-28T06:20:13.407Z,99.90
2019-04-28T06:22:43.822Z,99.90
2019-04-28T06:25:14.241Z,99.90
2019-04-28T06:27:44.654Z,99.90
2019-04-28T06:30:15.607Z,99.90
2019-04-28T06:32:46.094Z,99.90
2019-04-28T06:35:16.497Z,99.90
2019-04-28T06:37:46.959Z,99.90
2019-04-28T06:40:17.506Z,99.90
2019-04-28T06:42:47.911Z,99.90
2019-04-28T06:45:18.363Z,99.90
2019-04-28T06:47:48.816Z,99.90
2019-04-28T06:50:19.248Z,99.90
2019-04-28T06:52:49.719Z,99.90
2019-04-28T06:55:20.157Z,99.90
2019-04-28T06:57:50.573Z,99.90
2019-04-28T07:00:20.977Z,99.90
2019-04-28T07:02:51.427Z,99.90
2019-04-28T07:05:21.868Z,99.90
2019-04-28T07:07:52.341Z,99.90
2019-04-28T07:10:22.756Z,99.90
2019-04-28T07:12:53.205Z,99.90
2019-04-28T07:15:23.643Z,99.90
2019-04-28T07:17:54.066Z,99.90
2019-04-28T07:20:52.687Z,99.90
2019-04-28T07:23:23.196Z,99.90
2019-04-28T07:25:53.623Z,99.90
2019-04-28T07:28:24.067Z,99.90
2019-04-28T07:30:54.579Z,99.90
2019-04-28T07:33:35.535Z,99.90
2019-04-28T07:35:57.163Z,99.90
2019-04-28T07:38:27.605Z,99.90
2019-04-28T07:40:58.025Z,99.90
2019-04-28T07:43:28.462Z,99.90
2019-04-28T07:45:58.864Z,99.90
2019-04-28T07:48:29.326Z,99.90
2019-04-28T07:50:59.786Z,99.90
2019-04-28T07:53:42.375Z,99.90
2019-04-28T07:56:12.801Z,99.90
2019-04-28T07:58:43.267Z,99.90
2019-04-28T08:01:14.006Z,99.90
2019-04-28T08:03:49.691Z,99.90
2019-04-28T08:06:16.621Z,99.90
2019-04-28T08:08:47.061Z,99.90
2019-04-28T08:11:17.468Z,99.90
2019-04-28T08:13:48.257Z,99.90
2019-04-28T08:16:18.673Z,99.90
2019-04-28T08:18:49.096Z,99.90
2019-04-28T08:21:19.725Z,99.90
2019-04-28T08:23:50.276Z,99.90
2019-04-28T08:26:20.752Z,99.90
2019-04-28T08:28:51.231Z,99.90
2019-04-28T08:31:23.867Z,99.90
2019-04-28T08:34:02.504Z,99.90
2019-04-28T08:36:32.020Z,99.90
2019-04-28T08:39:02.483Z,99.90
2019-04-28T08:41:32.891Z,99.90
2019-04-28T08:44:03.404Z,99.90
2019-04-28T08:46:33.894Z,99.90
2019-04-28T08:49:04.435Z,99.90
2019-04-28T08:51:34.872Z,99.90
2019-04-28T08:54:05.521Z,99.90
2019-04-28T08:56:35.973Z,99.90
2019-04-28T08:59:06.396Z,99.90
2019-04-28T09:01:36.847Z,99.90
2019-04-28T09:04:15.150Z,99.90
2019-04-28T09:06:39.432Z,99.90
2019-04-28T09:09:14.226Z,99.90
2019-04-28T09:11:44.739Z,99.90
2019-04-28T09:14:15.172Z,99.90
2019-04-28T09:16:45.588Z,99.90
2019-04-28T09:19:16.071Z,99.90
2019-04-28T09:21:46.524Z,99.90
2019-04-28T09:24:16.950Z,99.90
2019-04-28T09:26:47.368Z,99.90
2019-04-28T09:29:17.804Z,99.90
2019-04-28T09:31:48.232Z,99.90
2019-04-28T09:34:28.161Z,99.90
2019-04-28T09:36:50.838Z,99.90
2019-04-28T09:39:42.328Z,99.90
2019-04-28T09:42:30.594Z,99.90
2019-04-28T09:45:01.847Z,99.90
2019-04-28T09:47:32.268Z,99.90
2019-04-28T09:50:02.668Z,99.90
2019-04-28T09:52:33.084Z,99.90
2019-04-28T09:55:03.551Z,99.90
2019-04-28T09:57:34.002Z,99.90
2019-04-28T10:00:05.070Z,99.90
2019-04-28T10:02:35.525Z,99.90
2019-04-28T10:05:06.435Z,99.90
2019-04-28T10:07:36.871Z,99.90
2019-04-28T10:10:08.515Z,99.90
2019-04-28T10:12:40.604Z,99.90
2019-04-28T10:15:11.468Z,99.90
2019-04-28T10:17:41.889Z,99.90
2019-04-28T10:20:12.498Z,99.90
2019-04-28T10:22:42.990Z,99.90
2019-04-28T10:25:13.481Z,99.90
2019-04-28T10:27:43.934Z,99.90
2019-04-28T10:30:15.035Z,99.90
2019-04-28T10:32:45.500Z,99.90
2019-04-28T10:35:16.045Z,99.90
2019-04-28T10:37:46.617Z,99.90
2019-04-28T10:40:50.507Z,99.90
2019-04-28T10:43:20.924Z,99.90
2019-04-28T10:45:51.623Z,99.90
2019-04-28T10:48:22.086Z,99.90
2019-04-28T10:50:52.496Z,99.90
2019-04-28T10:53:22.927Z,99.90
2019-04-28T10:55:53.353Z,99.90
2019-04-28T10:58:23.814Z,99.90
2019-04-28T11:00:54.270Z,99.90
2019-04-28T11:03:24.715Z,99.90
2019-04-28T11:05:55.137Z,99.90
2019-04-28T11:08:41.194Z,99.90
2019-04-28T11:11:21.504Z,99.90
2019-04-28T11:13:51.946Z,99.90
2019-04-28T11:16:30.780Z,99.90
2019-04-28T11:19:01.219Z,99.90
2019-04-28T11:21:31.674Z,99.90
2019-04-28T11:24:02.089Z,99.90
2019-04-28T11:26:32.511Z,99.90
2019-04-28T11:29:03.526Z,99.90
2019-04-28T11:31:34.019Z,99.90
2019-04-28T11:34:19.768Z,99.90
2019-04-28T11:36:50.207Z,99.90
2019-04-28T11:39:26.080Z,99.90
2019-04-28T11:41:56.507Z,99.90
2019-04-28T11:44:26.952Z,99.90
2019-04-28T11:46:57.409Z,99.90
2019-04-28T11:49:27.857Z,99.90
2019-04-28T11:51:58.294Z,99.90
2019-04-28T11:54:28.757Z,99.90
2019-04-28T11:56:59.199Z,99.90
2019-04-28T11:59:29.619Z,99.90
2019-04-28T12:02:00.425Z,99.90
2019-04-28T12:04:30.911Z,99.90
2019-04-28T12:07:01.391Z,99.90
2019-04-28T12:09:36.849Z,99.90
2019-04-28T12:12:11.321Z,99.90
2019-04-28T12:14:54.917Z,99.90
2019-04-28T12:17:53.439Z,99.90
2019-04-28T12:20:25.033Z,99.90
2019-04-28T12:22:55.442Z,99.90
2019-04-28T12:25:25.866Z,99.90
2019-04-28T12:27:56.278Z,99.90
2019-04-28T12:30:26.828Z,99.90
2019-04-28T12:32:57.283Z,99.90
2019-04-28T12:35:27.830Z,99.90
2019-04-28T12:37:58.249Z,99.90
2019-04-28T12:40:28.683Z,99.90
2019-04-28T12:42:59.102Z,99.90
2019-04-28T12:45:35.318Z,99.90
2019-04-28T12:48:01.668Z,99.90
2019-04-28T12:50:37.313Z,99.90
2019-04-28T12:53:07.729Z,99.90
2019-04-28T12:55:38.248Z,99.90
2019-04-28T12:58:08.726Z,99.90
2019-04-28T13:00:57.097Z,99.90
2019-04-28T13:03:35.259Z,99.90
2019-04-28T13:06:08.628Z,99.90
2019-04-28T13:08:39.046Z,99.90
2019-04-28T13:11:09.467Z,99.90
2019-04-28T13:13:39.958Z,99.90
2019-04-28T13:16:10.430Z,99.90
2019-04-28T13:18:40.864Z,99.90
2019-04-28T13:21:11.290Z,99.90
2019-04-28T13:23:41.719Z,99.90
2019-04-28T13:26:12.204Z,99.90
2019-04-28T13:28:42.677Z,99.90
2019-04-28T13:31:13.121Z,99.90
2019-04-28T13:33:55.879Z,99.90
2019-04-28T13:36:15.693Z,99.90
2019-04-28T13:38:46.142Z,99.90
2019-04-28T13:41:16.548Z,99.90
2019-04-28T13:43:46.979Z,99.90
2019-04-28T13:46:17.446Z,99.90
2019-04-28T13:48:47.863Z,99.90
2019-04-28T13:51:18.313Z,99.90
2019-04-28T13:53:48.824Z,99.90
2019-04-28T13:56:19.319Z,99.90
2019-04-28T13:58:55.659Z,99.90
2019-04-28T14:01:34.522Z,99.90
2019-04-28T14:04:22.583Z,99.90
2019-04-28T14:06:59.557Z,99.90
2019-04-28T14:09:30.729Z,92.80
2019-04-28T14:12:01.184Z,82.50
2019-04-28T14:14:31.621Z,78.20
2019-04-28T14:17:02.092Z,80.90
2019-04-28T14:19:32.626Z,83.70
2019-04-28T14:22:03.070Z,73.30
2019-04-28T14:24:33.594Z,58.50
2019-04-28T14:27:04.108Z,58.90
2019-04-28T14:29:34.546Z,54.50
2019-04-28T14:32:04.968Z,53.10
2019-04-28T14:34:35.431Z,52.10
2019-04-28T14:37:05.959Z,50.30
2019-04-28T14:39:36.426Z,47.50
2019-04-28T14:42:06.902Z,51.50
2019-04-28T14:44:37.382Z,48.90
2019-04-28T14:47:07.877Z,50.80
2019-04-28T14:49:38.287Z,51.30
2019-04-28T14:52:08.713Z,42.70
2019-04-28T14:54:39.146Z,43.30
2019-04-28T14:57:09.602Z,45.70
2019-04-28T14:59:40.027Z,43.20
2019-04-28T15:02:32.885Z,42.10
2019-04-28T15:05:25.119Z,43.60
2019-04-28T15:08:14.655Z,43.90
2019-04-28T15:11:05.646Z,42.20
2019-04-28T15:13:36.070Z,38.70
2019-04-28T15:16:06.640Z,40.80
2019-04-28T15:18:37.122Z,39.80
2019-04-28T15:21:07.559Z,38.50
2019-04-28T15:23:37.987Z,39.20
2019-04-28T15:26:08.426Z,39.90
2019-04-28T15:28:38.814Z,38.80
2019-04-28T15:31:09.285Z,37.70
2019-04-28T15:33:39.939Z,37.30
2019-04-28T15:36:10.378Z,37.20
2019-04-28T15:38:40.805Z,35.00
2019-04-28T15:41:21.335Z,37.40
2019-04-28T15:43:43.553Z,37.30
2019-04-28T15:46:14.110Z,37.10
2019-04-28T15:48:45.036Z,37.10
2019-04-28T15:51:15.614Z,36.00
2019-04-28T15:53:49.195Z,36.00
2019-04-28T15:56:35.130Z,36.40
2019-04-28T15:59:06.925Z,35.20
2019-04-28T16:01:37.558Z,36.80
2019-04-28T16:04:08.023Z,38.10
2019-04-28T16:06:38.656Z,38.50
2019-04-28T16:09:14.066Z,38.10
2019-04-28T16:11:45.055Z,38.70
2019-04-28T16:14:15.469Z,38.50
2019-04-28T16:16:45.923Z,39.60
2019-04-28T16:19:16.576Z,40.80
2019-04-28T16:21:48.099Z,41.30
2019-04-28T16:24:19.116Z,43.20
2019-04-28T16:26:49.836Z,44.30
2019-04-28T16:29:20.436Z,44.20
2019-04-28T16:31:51.020Z,45.70
2019-04-28T16:34:21.731Z,46.10
2019-04-28T16:36:52.324Z,46.30
2019-04-28T16:39:22.727Z,47.50
2019-04-28T16:41:53.195Z,48.90
2019-04-28T16:44:23.665Z,49.60
2019-04-28T16:46:54.248Z,48.80
2019-04-28T16:49:24.674Z,48.70
2019-04-28T16:51:55.087Z,46.40
2019-04-28T16:54:25.548Z,45.50
2019-04-28T16:57:09.222Z,45.60
2019-04-28T17:00:04.622Z,44.40
2019-04-28T17:02:38.483Z,45.30
2019-04-28T17:05:10.312Z,44.60
2019-04-28T17:07:51.990Z,43.10
2019-04-28T17:10:13.007Z,41.70
2019-04-28T17:12:43.454Z,42.70
2019-04-28T17:15:13.966Z,42.90
2019-04-28T17:17:44.442Z,43.60
2019-04-28T17:20:15.560Z,44.10
2019-04-28T17:22:45.986Z,44.40
2019-04-28T17:25:16.406Z,46.10
2019-04-28T17:27:47.257Z,47.10
2019-04-28T17:30:19.392Z,47.90
2019-04-28T17:32:49.858Z,48.20
2019-04-28T17:35:20.293Z,49.10
2019-04-28T17:37:50.791Z,49.10
2019-04-28T17:40:22.932Z,50.60
2019-04-28T17:42:53.418Z,51.50
2019-04-28T17:45:24.053Z,51.80
2019-04-28T17:47:56.276Z,52.70
2019-04-28T17:50:27.796Z,53.50
2019-04-28T17:52:58.734Z,54.00
2019-04-28T17:55:31.243Z,54.40
2019-04-28T17:58:04.895Z,55.40
2019-04-28T18:00:45.436Z,56.40
2019-04-28T18:03:28.985Z,56.70
2019-04-28T18:06:17.549Z,57.50
2019-04-28T18:08:40.838Z,58.50
2019-04-28T18:11:11.391Z,59.70
2019-04-28T18:13:41.878Z,59.60
2019-04-28T18:16:40.476Z,61.30
2019-04-28T18:19:12.177Z,62.90
2019-04-28T18:21:42.604Z,64.30
2019-04-28T18:24:13.083Z,64.10
2019-04-28T18:26:43.751Z,66.20
2019-04-28T18:29:14.288Z,66.30
2019-04-28T18:32:02.315Z,69.10
2019-04-28T18:34:54.947Z,69.40
2019-04-28T18:37:44.548Z,71.20
2019-04-28T18:40:31.148Z,72.80
2019-04-28T18:43:20.832Z,74.60
2019-04-28T18:45:51.279Z,75.40
2019-04-28T18:48:21.688Z,76.20
2019-04-28T18:50:52.122Z,77.10
2019-04-28T18:53:22.592Z,79.00
2019-04-28T18:55:53.111Z,79.60
2019-04-28T18:58:23.657Z,82.00
2019-04-28T19:01:19.344Z,82.40
2019-04-28T19:03:49.795Z,84.00
2019-04-28T19:06:20.261Z,83.70
2019-04-28T19:08:58.744Z,85.40
2019-04-28T19:11:46.074Z,85.60
2019-04-28T19:14:23.203Z,89.10
2019-04-28T19:17:03.151Z,89.80
2019-04-28T19:19:34.607Z,90.10
2019-04-28T19:22:05.122Z,91.00
2019-04-28T19:24:35.617Z,91.50
2019-04-28T19:27:07.535Z,91.60
2019-04-28T19:29:39.717Z,92.40
2019-04-28T19:32:11.952Z,92.70
2019-04-28T19:34:43.999Z,93.10
2019-04-28T19:37:15.473Z,93.80
2019-04-28T19:39:47.443Z,95.20
2019-04-28T19:42:17.968Z,95.20
2019-04-28T19:44:49.567Z,95.90
2019-04-28T19:47:23.325Z,96.20
2019-04-28T19:49:54.394Z,96.60
2019-04-28T19:52:26.143Z,97.20
2019-04-28T19:55:23.507Z,98.00
2019-04-28T19:58:26.474Z,98.10
2019-04-28T20:01:01.091Z,98.80
2019-04-28T20:03:32.437Z,98.80
2019-04-28T20:06:05.715Z,99.90
2019-04-28T20:08:36.434Z,99.90
2019-04-28T20:11:08.449Z,99.90
2019-04-28T20:13:59.810Z,99.90
2019-04-28T20:16:32.493Z,99.90
2019-04-28T20:19:04.519Z,99.90
2019-04-28T20:21:36.627Z,99.90
2019-04-28T20:24:07.460Z,99.90
2019-04-28T20:26:37.923Z,99.90
2019-04-28T20:29:08.385Z,99.90
2019-04-28T20:31:38.797Z,99.90
2019-04-28T20:34:09.269Z,99.90
2019-04-28T20:37:13.958Z,99.90
2019-04-28T20:39:46.263Z,99.90
2019-04-28T20:42:34.306Z,99.90
2019-04-28T20:45:05.558Z,99.90
2019-04-28T20:47:35.991Z,99.90
2019-04-28T20:50:06.735Z,99.90
2019-04-28T20:52:37.148Z,99.90
2019-04-28T20:55:07.772Z,99.90
2019-04-28T20:57:38.253Z,99.90
2019-04-28T21:00:09.010Z,99.90
2019-04-28T21:02:39.449Z,99.90
2019-04-28T21:05:10.147Z,99.90
2019-04-28T21:07:40.952Z,99.90
2019-04-28T21:10:11.745Z,99.90
2019-04-28T21:12:42.447Z,99.90
2019-04-28T21:15:13.018Z,99.90
2019-04-28T21:17:43.564Z,99.90
2019-04-28T21:20:14.006Z,99.90
2019-04-28T21:22:44.437Z,99.90
2019-04-28T21:25:14.879Z,99.90
2019-04-28T21:27:45.306Z,99.90
2019-04-28T21:30:16.128Z,99.90
2019-04-28T21:32:46.665Z,99.90
2019-04-28T21:35:17.266Z,99.90
2019-04-28T21:37:47.840Z,99.90
2019-04-28T21:40:19.189Z,99.90
2019-04-28T21:43:11.686Z,99.90
2019-04-28T21:45:50.490Z,99.90
2019-04-28T21:48:40.110Z,99.90
2019-04-28T21:51:12.116Z,99.90
2019-04-28T21:53:42.923Z,99.90
2019-04-28T21:56:13.650Z,99.90
2019-04-28T21:58:44.104Z,99.90
2019-04-28T22:01:19.974Z,99.90
2019-04-28T22:03:50.470Z,99.90
2019-04-28T22:06:21.037Z,99.90
2019-04-28T22:08:52.593Z,99.90
2019-04-28T22:11:23.088Z,99.90
2019-04-28T22:13:53.554Z,99.90
2019-04-28T22:16:24.154Z,99.90
2019-04-28T22:18:54.827Z,99.90
2019-04-28T22:21:25.388Z,99.90
2019-04-28T22:24:09.969Z,99.90
2019-04-28T22:26:48.402Z,99.90
2019-04-28T22:29:18.838Z,99.90
2019-04-28T22:31:49.300Z,99.90
2019-04-28T22:34:19.790Z,99.90
2019-04-28T22:36:50.348Z,99.90
2019-04-28T22:39:20.822Z,99.90
2019-04-28T22:41:51.275Z,99.90
2019-04-28T22:44:21.698Z,99.90
2019-04-28T22:46:52.207Z,99.90
2019-04-28T22:49:22.629Z,99.90
2019-04-28T22:51:53.187Z,99.90
2019-04-28T22:54:30.144Z,99.90
2019-04-28T22:57:34.953Z,99.90
2019-04-28T23:00:25.050Z,99.90
2019-04-28T23:02:55.494Z,99.90
2019-04-28T23:05:25.900Z,99.90
2019-04-28T23:07:56.448Z,99.90
2019-04-28T23:10:27.277Z,99.90
2019-04-28T23:12:57.715Z,99.90
2019-04-28T23:15:28.159Z,99.90
2019-04-28T23:17:58.688Z,99.90
2019-04-28T23:20:31.237Z,99.90
2019-04-28T23:23:03.997Z,99.90
2019-04-28T23:25:34.488Z,99.90
2019-04-28T23:28:05.053Z,99.90
2019-04-28T23:30:42.875Z,99.90
2019-04-28T23:33:13.370Z,99.90
2019-04-28T23:35:43.793Z,99.90
2019-04-28T23:38:14.238Z,99.90
2019-04-28T23:41:09.957Z,99.90
2019-04-28T23:43:40.388Z,99.90
2019-04-28T23:46:10.798Z,99.90
2019-04-28T23:48:41.241Z,99.90
2019-04-28T23:51:19.552Z,99.90
2019-04-28T23:54:02.347Z,99.90
2019-04-28T23:56:32.819Z,99.90
2019-04-28T23:59:03.328Z,99.90
